createdAt,value
2017-10-30T00:00:27.647Z,8.00
2017-10-30T00:01:27.256Z,7.90
2017-10-30T00:02:27.235Z,7.90
2017-10-30T00:03:27.225Z,7.98
2017-10-30T00:04:27.207Z,7.90
2017-10-30T00:05:27.186Z,7.89
2017-10-30T00:06:27.237Z,7.93
2017-10-30T00:07:27.158Z,7.95
2017-10-30T00:08:27.156Z,7.90
2017-10-30T00:09:27.123Z,7.90
2017-10-30T00:10:27.118Z,7.93
2017-10-30T00:11:27.090Z,7.97
2017-10-30T00:12:27.212Z,7.92
2017-10-30T00:13:27.056Z,7.95
2017-10-30T00:14:27.062Z,7.93
2017-10-30T00:15:27.024Z,7.95
2017-10-30T00:16:27.005Z,7.87
2017-10-30T00:17:26.989Z,7.93
2017-10-30T00:18:27.330Z,7.93
2017-10-30T00:19:26.973Z,7.93
2017-10-30T00:20:26.939Z,7.89
2017-10-30T00:21:26.937Z,7.92
2017-10-30T00:22:26.906Z,7.97
2017-10-30T00:23:26.915Z,7.95
2017-10-30T00:24:27.024Z,7.95
2017-10-30T00:25:26.866Z,7.90
2017-10-30T00:26:26.840Z,7.93
2017-10-30T00:27:26.829Z,7.89
2017-10-30T00:28:26.807Z,7.92
2017-10-30T00:29:26.790Z,7.93
2017-10-30T00:30:26.806Z,7.85
2017-10-30T00:31:26.752Z,7.95
2017-10-30T00:32:26.742Z,7.93
2017-10-30T00:33:26.724Z,7.89
2017-10-30T00:34:26.706Z,7.90
2017-10-30T00:35:26.889Z,7.90
2017-10-30T00:36:26.677Z,7.92
2017-10-30T00:37:26.666Z,7.93
2017-10-30T00:38:26.652Z,7.92
2017-10-30T00:39:26.641Z,7.95
2017-10-30T00:40:26.612Z,7.93
2017-10-30T00:41:26.892Z,7.87
2017-10-30T00:42:26.582Z,7.92
2017-10-30T00:43:26.567Z,7.90
2017-10-30T00:44:26.550Z,7.82
2017-10-30T00:45:26.528Z,7.87
2017-10-30T00:46:26.517Z,7.89
2017-10-30T00:47:26.533Z,7.87
2017-10-30T00:48:26.478Z,7.87
2017-10-30T00:49:26.465Z,7.89
2017-10-30T00:50:26.581Z,7.86
2017-10-30T00:51:26.433Z,7.89
2017-10-30T00:52:26.421Z,7.89
2017-10-30T00:53:26.396Z,7.90
2017-10-30T00:54:26.388Z,7.85
2017-10-30T00:55:26.366Z,7.93
2017-10-30T00:56:26.415Z,7.92
2017-10-30T00:57:26.327Z,7.93
2017-10-30T00:58:26.320Z,7.95
2017-10-30T00:59:26.296Z,7.90
2017-10-30T01:00:26.283Z,8.05
2017-10-30T01:01:26.266Z,7.93
2017-10-30T01:02:26.391Z,7.90
2017-10-30T01:03:26.234Z,7.86
2017-10-30T01:04:26.228Z,7.92
2017-10-30T01:05:26.196Z,7.90
2017-10-30T01:06:26.183Z,7.95
2017-10-30T01:07:26.171Z,7.87
2017-10-30T01:08:26.219Z,7.89
2017-10-30T01:09:26.140Z,7.89
2017-10-30T01:10:26.114Z,7.90
2017-10-30T01:11:26.100Z,7.89
2017-10-30T01:12:26.089Z,7.92
2017-10-30T01:13:26.066Z,7.86
2017-10-30T01:14:26.110Z,7.85
2017-10-30T01:15:26.039Z,7.85
2017-10-30T01:16:26.027Z,7.79
2017-10-30T01:17:26.001Z,7.80
2017-10-30T01:18:25.989Z,7.85
2017-10-30T01:19:25.967Z,7.83
2017-10-30T01:20:25.996Z,7.77
2017-10-30T01:21:25.954Z,7.80
2017-10-30T01:22:25.918Z,7.75
2017-10-30T01:23:25.904Z,7.77
2017-10-30T01:24:25.945Z,7.75
2017-10-30T01:25:25.873Z,7.77
2017-10-30T01:26:25.862Z,7.75
2017-10-30T01:27:25.842Z,7.74
2017-10-30T01:28:25.818Z,7.69
2017-10-30T01:29:25.800Z,7.74
2017-10-30T01:30:26.229Z,7.85
2017-10-30T01:31:25.773Z,7.74
2017-10-30T01:32:25.762Z,7.75
2017-10-30T01:33:25.737Z,7.74
2017-10-30T01:34:25.724Z,7.80
2017-10-30T01:35:25.699Z,7.74
2017-10-30T01:36:25.817Z,7.77
2017-10-30T01:37:25.672Z,7.75
2017-10-30T01:38:25.653Z,7.82
2017-10-30T01:39:25.636Z,7.74
2017-10-30T01:40:25.617Z,7.79
2017-10-30T01:41:25.601Z,7.74
2017-10-30T01:42:25.641Z,7.75
2017-10-30T01:43:25.590Z,7.75
2017-10-30T01:44:25.555Z,7.74
2017-10-30T01:45:25.548Z,7.68
2017-10-30T01:46:25.516Z,7.71
2017-10-30T01:47:25.503Z,7.69
2017-10-30T01:48:25.630Z,7.69
2017-10-30T01:49:32.251Z,7.67
2017-10-30T01:50:25.456Z,7.63
2017-10-30T01:51:25.439Z,7.71
2017-10-30T01:52:25.422Z,7.71
2017-10-30T01:53:25.405Z,7.71
2017-10-30T01:54:25.467Z,7.74
2017-10-30T01:55:25.378Z,7.74
2017-10-30T01:56:25.355Z,7.64
2017-10-30T01:57:25.336Z,7.75
2017-10-30T01:58:25.319Z,7.64
2017-10-30T01:59:25.306Z,7.74
2017-10-30T02:00:25.422Z,7.71
2017-10-30T02:01:25.276Z,7.71
2017-10-30T02:02:25.254Z,7.71
2017-10-30T02:03:25.237Z,7.75
2017-10-30T02:04:25.217Z,7.71
2017-10-30T02:05:25.219Z,7.71
2017-10-30T02:06:25.257Z,7.71
2017-10-30T02:07:25.172Z,7.72
2017-10-30T02:08:25.156Z,7.68
2017-10-30T02:09:25.141Z,7.67
2017-10-30T02:10:25.119Z,7.58
2017-10-30T02:11:25.112Z,7.64
2017-10-30T02:12:25.140Z,7.60
2017-10-30T02:13:25.072Z,7.74
2017-10-30T02:14:25.062Z,7.74
2017-10-30T02:15:25.038Z,7.75
2017-10-30T02:16:25.021Z,7.67
2017-10-30T02:17:25.003Z,7.72
2017-10-30T02:18:25.130Z,7.61
2017-10-30T02:19:24.971Z,7.71
2017-10-30T02:20:24.967Z,7.69
2017-10-30T02:21:24.943Z,7.64
2017-10-30T02:22:24.946Z,7.55
2017-10-30T02:23:24.903Z,7.52
2017-10-30T02:24:25.042Z,7.53
2017-10-30T02:25:24.874Z,7.53
2017-10-30T02:26:24.860Z,7.57
2017-10-30T02:27:24.839Z,7.52
2017-10-30T02:28:24.827Z,7.55
2017-10-30T02:29:24.806Z,7.55
2017-10-30T02:30:24.866Z,7.48
2017-10-30T02:31:24.774Z,7.57
2017-10-30T02:32:24.756Z,7.53
2017-10-30T02:33:24.737Z,7.57
2017-10-30T02:34:24.722Z,7.58
2017-10-30T02:35:24.709Z,7.53
2017-10-30T02:36:24.829Z,7.57
2017-10-30T02:37:24.684Z,7.46
2017-10-30T02:38:24.670Z,7.49
2017-10-30T02:39:24.645Z,7.57
2017-10-30T02:40:24.626Z,7.55
2017-10-30T02:41:24.609Z,7.58
2017-10-30T02:42:24.646Z,7.57
2017-10-30T02:43:24.580Z,7.53
2017-10-30T02:44:24.558Z,7.53
2017-10-30T02:45:24.542Z,7.63
2017-10-30T02:46:24.530Z,7.58
2017-10-30T02:47:24.505Z,7.53
2017-10-30T02:48:24.555Z,7.68
2017-10-30T02:49:24.472Z,7.58
2017-10-30T02:50:24.456Z,7.57
2017-10-30T02:51:24.449Z,7.53
2017-10-30T02:52:24.421Z,7.55
2017-10-30T02:53:24.409Z,7.63
2017-10-30T02:54:24.447Z,7.67
2017-10-30T02:55:24.384Z,7.60
2017-10-30T02:56:24.363Z,7.58
2017-10-30T02:57:24.341Z,7.57
2017-10-30T02:58:24.320Z,7.67
2017-10-30T02:59:24.305Z,7.55
2017-10-30T03:00:24.340Z,7.63
2017-10-30T03:01:24.279Z,7.52
2017-10-30T03:02:24.258Z,7.48
2017-10-30T03:03:24.235Z,7.52
2017-10-30T03:04:24.220Z,7.58
2017-10-30T03:05:24.206Z,7.55
2017-10-30T03:06:24.618Z,7.61
2017-10-30T03:07:24.179Z,7.64
2017-10-30T03:08:24.165Z,7.63
2017-10-30T03:09:24.140Z,7.61
2017-10-30T03:10:24.124Z,7.61
2017-10-30T03:11:24.111Z,7.67
2017-10-30T03:12:24.227Z,7.64
2017-10-30T03:13:24.071Z,7.63
2017-10-30T03:14:24.059Z,7.69
2017-10-30T03:15:24.038Z,7.71
2017-10-30T03:16:24.028Z,7.60
2017-10-30T03:17:24.005Z,7.58
2017-10-30T03:18:24.123Z,7.60
2017-10-30T03:19:23.973Z,7.67
2017-10-30T03:20:23.968Z,7.64
2017-10-30T03:21:23.937Z,7.55
2017-10-30T03:22:23.920Z,7.68
2017-10-30T03:23:23.908Z,7.69
2017-10-30T03:24:24.235Z,7.60
2017-10-30T03:25:23.871Z,7.72
2017-10-30T03:26:23.855Z,7.63
2017-10-30T03:27:23.837Z,7.64
2017-10-30T03:28:23.827Z,7.60
2017-10-30T03:29:23.805Z,7.60
2017-10-30T03:30:23.929Z,7.64
2017-10-30T03:31:23.786Z,7.64
2017-10-30T03:32:23.763Z,7.64
2017-10-30T03:33:23.743Z,7.67
2017-10-30T03:34:23.720Z,7.60
2017-10-30T03:35:23.720Z,7.64
2017-10-30T03:36:23.827Z,7.57
2017-10-30T03:37:23.669Z,7.69
2017-10-30T03:38:23.667Z,7.60
2017-10-30T03:39:23.648Z,7.72
2017-10-30T03:40:23.625Z,7.71
2017-10-30T03:41:23.602Z,7.71
2017-10-30T03:42:23.840Z,7.69
2017-10-30T03:43:23.570Z,7.60
2017-10-30T03:44:23.555Z,7.75
2017-10-30T03:45:23.548Z,7.71
2017-10-30T03:46:23.518Z,7.64
2017-10-30T03:47:23.507Z,7.67
2017-10-30T03:48:23.543Z,7.77
2017-10-30T03:49:23.475Z,7.74
2017-10-30T03:50:23.456Z,7.72
2017-10-30T03:51:23.454Z,7.77
2017-10-30T03:52:23.434Z,7.74
2017-10-30T03:53:23.406Z,7.68
2017-10-30T03:54:23.770Z,7.72
2017-10-30T03:55:23.379Z,7.71
2017-10-30T03:56:23.367Z,7.71
2017-10-30T03:57:23.345Z,7.60
2017-10-30T03:58:23.334Z,7.61
2017-10-30T03:59:23.307Z,7.58
2017-10-30T04:00:23.352Z,7.57
2017-10-30T04:01:23.279Z,7.60
2017-10-30T04:02:23.259Z,7.58
2017-10-30T04:03:23.242Z,7.64
2017-10-30T04:04:23.224Z,7.50
2017-10-30T04:05:23.213Z,7.60
2017-10-30T04:06:23.256Z,7.67
2017-10-30T04:07:23.178Z,7.61
2017-10-30T04:08:23.161Z,7.61
2017-10-30T04:09:23.136Z,7.60
2017-10-30T04:10:23.124Z,7.64
2017-10-30T04:11:23.107Z,7.53
2017-10-30T04:12:23.150Z,7.50
2017-10-30T04:13:23.070Z,7.60
2017-10-30T04:14:23.071Z,7.52
2017-10-30T04:15:23.044Z,7.58
2017-10-30T04:16:23.032Z,7.63
2017-10-30T04:17:23.006Z,7.55
2017-10-30T04:18:23.124Z,7.53
2017-10-30T04:19:22.974Z,7.60
2017-10-30T04:20:22.958Z,7.61
2017-10-30T04:21:22.936Z,7.53
2017-10-30T04:22:22.924Z,7.52
2017-10-30T04:23:22.905Z,7.50
2017-10-30T04:24:23.024Z,7.57
2017-10-30T04:25:22.884Z,7.57
2017-10-30T04:26:22.857Z,7.48
2017-10-30T04:27:22.843Z,7.50
2017-10-30T04:28:22.824Z,7.52
2017-10-30T04:29:22.807Z,7.55
2017-10-30T04:30:22.930Z,7.49
2017-10-30T04:31:22.777Z,7.50
2017-10-30T04:32:22.760Z,7.52
2017-10-30T04:33:22.740Z,7.52
2017-10-30T04:34:22.735Z,7.49
2017-10-30T04:35:22.706Z,7.45
2017-10-30T04:36:22.834Z,7.43
2017-10-30T04:37:22.673Z,7.42
2017-10-30T04:38:22.672Z,7.43
2017-10-30T04:39:22.639Z,7.39
2017-10-30T04:40:22.631Z,7.30
2017-10-30T04:41:22.603Z,7.39
2017-10-30T04:42:22.625Z,7.37
2017-10-30T04:43:22.579Z,7.32
2017-10-30T04:44:22.555Z,7.34
2017-10-30T04:45:22.541Z,7.42
2017-10-30T04:46:22.658Z,7.42
2017-10-30T04:47:22.503Z,7.34
2017-10-30T04:48:22.491Z,7.42
2017-10-30T04:49:22.490Z,7.34
2017-10-30T04:50:22.455Z,7.39
2017-10-30T04:51:22.435Z,7.40
2017-10-30T04:52:22.834Z,7.45
2017-10-30T04:53:22.413Z,7.43
2017-10-30T04:54:22.388Z,7.32
2017-10-30T04:55:22.389Z,7.30
2017-10-30T04:56:22.356Z,7.43
2017-10-30T04:57:22.347Z,7.32
2017-10-30T04:58:22.743Z,7.32
2017-10-30T04:59:22.305Z,7.35
2017-10-30T05:00:22.288Z,7.37
2017-10-30T05:01:22.269Z,7.34
2017-10-30T05:02:22.255Z,7.30
2017-10-30T05:03:22.236Z,7.30
2017-10-30T05:04:22.276Z,7.28
2017-10-30T05:05:22.204Z,7.31
2017-10-30T05:06:22.195Z,7.31
2017-10-30T05:07:22.171Z,7.37
2017-10-30T05:08:22.155Z,7.37
2017-10-30T05:09:22.137Z,7.35
2017-10-30T05:10:22.157Z,7.35
2017-10-30T05:11:22.136Z,7.27
2017-10-30T05:12:22.082Z,7.34
2017-10-30T05:13:22.085Z,7.31
2017-10-30T05:14:22.051Z,7.35
2017-10-30T05:15:22.045Z,7.31
2017-10-30T05:16:22.335Z,7.28
2017-10-30T05:17:22.011Z,7.31
2017-10-30T05:18:21.986Z,7.39
2017-10-30T05:19:21.966Z,7.23
2017-10-30T05:20:21.951Z,7.25
2017-10-30T05:21:21.932Z,7.24
2017-10-30T05:22:22.067Z,7.25
2017-10-30T05:23:21.902Z,7.23
2017-10-30T05:24:21.881Z,7.24
2017-10-30T05:25:21.879Z,7.17
2017-10-30T05:26:21.851Z,7.16
2017-10-30T05:27:21.846Z,7.16
2017-10-30T05:28:21.876Z,7.12
2017-10-30T05:29:21.796Z,7.10
2017-10-30T05:30:21.781Z,7.13
2017-10-30T05:31:21.762Z,7.12
2017-10-30T05:32:21.751Z,7.12
2017-10-30T05:33:21.751Z,7.12
2017-10-30T05:34:21.860Z,7.12
2017-10-30T05:35:21.695Z,7.12
2017-10-30T05:36:21.689Z,7.13
2017-10-30T05:37:21.665Z,7.06
2017-10-30T05:38:21.645Z,7.06
2017-10-30T05:39:21.624Z,7.03
2017-10-30T05:40:21.753Z,7.03
2017-10-30T05:41:21.596Z,7.09
2017-10-30T05:42:21.579Z,7.06
2017-10-30T05:43:21.564Z,7.09
2017-10-30T05:44:21.548Z,7.09
2017-10-30T05:45:21.528Z,6.98
2017-10-30T05:46:21.641Z,6.98
2017-10-30T05:47:21.491Z,6.98
2017-10-30T05:48:21.471Z,7.03
2017-10-30T05:49:21.459Z,6.98
2017-10-30T05:50:21.442Z,7.02
2017-10-30T05:51:21.421Z,6.97
2017-10-30T05:52:21.436Z,7.05
2017-10-30T05:53:21.393Z,6.88
2017-10-30T05:54:21.379Z,6.89
2017-10-30T05:55:21.351Z,7.02
2017-10-30T05:56:21.341Z,6.98
2017-10-30T05:57:21.380Z,6.94
2017-10-30T05:58:21.309Z,6.97
2017-10-30T05:59:21.290Z,6.89
2017-10-30T06:00:21.278Z,6.89
2017-10-30T06:01:21.256Z,6.91
2017-10-30T06:02:21.234Z,6.89
2017-10-30T06:03:21.354Z,6.94
2017-10-30T06:04:21.199Z,6.97
2017-10-30T06:05:21.190Z,6.92
2017-10-30T06:06:21.172Z,6.85
2017-10-30T06:07:21.160Z,6.91
2017-10-30T06:08:21.131Z,6.88
2017-10-30T06:09:21.271Z,6.88
2017-10-30T06:10:21.098Z,6.89
2017-10-30T06:11:21.089Z,6.95
2017-10-30T06:12:21.064Z,6.85
2017-10-30T06:13:21.041Z,6.94
2017-10-30T06:14:21.039Z,6.94
2017-10-30T06:15:21.071Z,6.85
2017-10-30T06:16:20.997Z,6.91
2017-10-30T06:17:20.982Z,6.94
2017-10-30T06:18:20.963Z,6.94
2017-10-30T06:19:20.948Z,6.94
2017-10-30T06:20:20.924Z,6.89
2017-10-30T06:21:20.969Z,6.92
2017-10-30T06:22:20.896Z,6.94
2017-10-30T06:23:20.876Z,6.87
2017-10-30T06:24:20.870Z,6.89
2017-10-30T06:25:20.845Z,6.89
2017-10-30T06:26:20.827Z,6.98
2017-10-30T06:27:20.874Z,6.88
2017-10-30T06:28:20.789Z,6.94
2017-10-30T06:29:20.783Z,6.88
2017-10-30T06:30:20.758Z,6.89
2017-10-30T06:31:20.741Z,6.92
2017-10-30T06:32:20.721Z,6.92
2017-10-30T06:33:20.846Z,6.91
2017-10-30T06:34:20.686Z,6.89
2017-10-30T06:35:20.671Z,6.95
2017-10-30T06:36:20.653Z,6.89
2017-10-30T06:37:20.648Z,6.91
2017-10-30T06:38:20.624Z,6.88
2017-10-30T06:39:20.679Z,6.89
2017-10-30T06:40:20.585Z,6.92
2017-10-30T06:41:20.581Z,6.94
2017-10-30T06:42:20.548Z,6.92
2017-10-30T06:43:20.529Z,6.88
2017-10-30T06:44:20.516Z,6.89
2017-10-30T06:45:20.652Z,6.89
2017-10-30T06:46:20.484Z,6.89
2017-10-30T06:47:20.466Z,6.92
2017-10-30T06:48:20.461Z,6.91
2017-10-30T06:49:20.430Z,6.88
2017-10-30T06:50:20.416Z,6.88
2017-10-30T06:51:20.434Z,6.88
2017-10-30T06:52:20.380Z,6.91
2017-10-30T06:53:20.363Z,6.85
2017-10-30T06:54:20.352Z,6.91
2017-10-30T06:55:20.707Z,6.89
2017-10-30T06:56:20.312Z,6.88
2017-10-30T06:57:20.314Z,6.87
2017-10-30T06:58:20.273Z,6.87
2017-10-30T06:59:20.267Z,6.92
2017-10-30T07:00:20.245Z,6.88
2017-10-30T07:01:20.330Z,6.88
2017-10-30T07:02:20.222Z,6.94
2017-10-30T07:03:20.194Z,6.94
2017-10-30T07:04:20.171Z,6.87
2017-10-30T07:05:20.158Z,6.89
2017-10-30T07:06:20.140Z,6.92
2017-10-30T07:07:20.794Z,6.88
2017-10-30T07:08:20.104Z,6.92
2017-10-30T07:09:20.088Z,6.92
2017-10-30T07:10:20.076Z,6.95
2017-10-30T07:11:20.058Z,6.94
2017-10-30T07:12:20.033Z,6.92
2017-10-30T07:13:20.445Z,6.88
2017-10-30T07:14:20.143Z,6.99
2017-10-30T07:15:20.248Z,6.91
2017-10-30T07:16:20.165Z,6.97
2017-10-30T07:17:19.961Z,7.02
2017-10-30T07:18:19.933Z,6.97
2017-10-30T07:19:19.952Z,7.02
2017-10-30T07:20:19.939Z,6.98
2017-10-30T07:21:19.888Z,7.02
2017-10-30T07:22:19.874Z,7.02
2017-10-30T07:23:19.850Z,7.03
2017-10-30T07:24:19.829Z,7.02
2017-10-30T07:25:19.954Z,6.98
2017-10-30T07:26:19.805Z,7.06
2017-10-30T07:27:19.789Z,7.07
2017-10-30T07:28:19.762Z,7.09
2017-10-30T07:29:19.757Z,7.05
2017-10-30T07:30:19.732Z,7.05
2017-10-30T07:31:19.748Z,7.06
2017-10-30T07:32:19.692Z,7.05
2017-10-30T07:33:19.685Z,7.05
2017-10-30T07:34:19.663Z,7.12
2017-10-30T07:35:19.724Z,7.12
2017-10-30T07:36:19.636Z,7.13
2017-10-30T07:37:19.608Z,7.10
2017-10-30T07:38:19.598Z,7.15
2017-10-30T07:39:19.579Z,7.09
2017-10-30T07:40:19.559Z,7.12
2017-10-30T07:41:19.577Z,7.21
2017-10-30T07:42:19.524Z,7.25
2017-10-30T07:43:19.512Z,7.21
2017-10-30T07:44:19.492Z,7.13
2017-10-30T07:45:19.529Z,7.27
2017-10-30T07:46:19.458Z,7.23
2017-10-30T07:47:19.445Z,7.27
2017-10-30T07:48:19.421Z,7.28
2017-10-30T07:49:19.411Z,7.37
2017-10-30T07:50:19.388Z,7.35
2017-10-30T07:51:19.434Z,7.34
2017-10-30T07:52:19.373Z,7.35
2017-10-30T07:53:19.345Z,7.27
2017-10-30T07:54:19.331Z,7.37
2017-10-30T07:55:19.301Z,7.32
2017-10-30T07:56:19.288Z,7.31
2017-10-30T07:57:19.372Z,7.30
2017-10-30T07:58:19.284Z,7.27
2017-10-30T07:59:19.237Z,7.31
2017-10-30T08:00:19.227Z,7.45
2017-10-30T08:01:19.217Z,7.40
2017-10-30T08:02:19.190Z,7.45
2017-10-30T08:03:19.356Z,7.35
2017-10-30T08:04:19.169Z,7.32
2017-10-30T08:05:19.144Z,7.43
2017-10-30T08:06:21.272Z,7.45
2017-10-30T08:07:19.105Z,7.45
2017-10-30T08:08:19.087Z,7.48
2017-10-30T08:09:19.425Z,7.49
2017-10-30T08:10:19.049Z,7.58
2017-10-30T08:11:19.035Z,7.55
2017-10-30T08:12:19.015Z,7.53
2017-10-30T08:13:19.000Z,7.64
2017-10-30T08:14:18.989Z,7.72
2017-10-30T08:15:19.025Z,7.68
2017-10-30T08:16:18.953Z,7.80
2017-10-30T08:17:18.940Z,7.79
2017-10-30T08:18:18.923Z,7.71
2017-10-30T08:19:18.903Z,7.85
2017-10-30T08:20:18.889Z,7.87
2017-10-30T08:21:18.899Z,7.85
2017-10-30T08:27:20.106Z,8.05
2017-10-30T08:28:20.158Z,7.95
2017-10-30T08:29:19.689Z,8.00
2017-10-30T08:30:20.209Z,8.00
2017-10-30T08:34:12.924Z,8.01
2017-10-30T08:50:57.077Z,8.22
2017-10-30T08:51:56.983Z,8.29
2017-10-30T08:52:57.735Z,8.30
2017-10-30T08:53:57.882Z,8.25
2017-10-30T08:54:57.823Z,8.29
2017-10-30T08:55:56.913Z,8.28
2017-10-30T08:56:57.107Z,8.25
2017-10-30T08:57:56.877Z,8.34
2017-10-30T08:58:56.864Z,8.34
2017-10-30T08:59:56.839Z,8.36
2017-10-30T09:00:56.832Z,8.44
2017-10-30T09:01:56.816Z,8.38
2017-10-30T09:02:56.934Z,8.44
2017-10-30T09:03:56.774Z,8.45
2017-10-30T09:04:56.955Z,8.43
2017-10-30T09:05:56.741Z,8.50
2017-10-30T09:06:56.723Z,8.48
2017-10-30T09:07:56.710Z,8.53
2017-10-30T09:08:56.841Z,8.59
2017-10-30T09:09:56.684Z,8.62
2017-10-30T09:10:56.661Z,8.65
2017-10-30T09:11:56.643Z,8.66
2017-10-30T09:12:56.636Z,8.61
2017-10-30T09:13:56.612Z,8.61
2017-10-30T09:14:56.761Z,8.65
2017-10-30T09:15:56.576Z,8.68
2017-10-30T09:16:56.564Z,8.71
2017-10-30T09:17:56.549Z,8.76
2017-10-30T09:18:56.536Z,8.77
2017-10-30T09:19:56.515Z,8.77
2017-10-30T09:20:56.531Z,8.76
2017-10-30T09:21:56.516Z,8.81
2017-10-30T09:22:56.467Z,8.76
2017-10-30T09:23:56.459Z,8.76
2017-10-30T09:25:05.615Z,8.81
2017-10-30T09:43:22.589Z,8.99
2017-10-30T09:45:37.239Z,8.99
2017-10-30T09:50:38.522Z,9.10
2017-10-30T09:51:38.380Z,9.10
2017-10-30T09:52:38.964Z,9.13
2017-10-30T09:53:38.716Z,9.15
2017-10-30T09:54:38.333Z,9.14
2017-10-30T09:55:38.585Z,9.13
2017-10-30T09:56:38.751Z,9.13
2017-10-30T09:57:38.313Z,9.20
2017-10-30T09:58:38.246Z,9.20
2017-10-30T09:59:38.239Z,9.21
2017-10-30T10:00:38.221Z,9.23
2017-10-30T10:01:38.834Z,9.33
2017-10-30T10:02:39.265Z,9.32
2017-10-30T10:03:38.969Z,9.29
2017-10-30T10:04:38.164Z,9.38
2017-10-30T10:05:38.138Z,9.40
2017-10-30T10:06:39.462Z,9.46
2017-10-30T10:07:38.208Z,9.38
2017-10-30T10:16:36.811Z,9.51
2017-10-30T10:17:34.830Z,9.53
2017-10-30T10:18:34.373Z,9.57
2017-10-30T10:19:34.326Z,9.64
2017-10-30T10:20:34.836Z,9.66
2017-10-30T10:21:34.336Z,9.56
2017-10-30T10:22:34.428Z,9.65
2017-10-30T10:23:34.262Z,9.65
2017-10-30T10:24:34.259Z,9.71
2017-10-30T10:25:34.234Z,9.75
2017-10-30T10:26:34.231Z,9.74
2017-10-30T10:27:34.205Z,9.74
2017-10-30T10:28:35.464Z,9.72
2017-10-30T10:29:34.262Z,9.71
2017-10-30T10:30:34.164Z,9.68
2017-10-30T10:31:34.164Z,9.72
2017-10-30T10:41:31.477Z,9.86
2017-10-30T10:42:30.728Z,9.87
2017-10-30T10:43:29.821Z,9.78
2017-10-30T10:47:31.970Z,9.83
2017-10-30T10:48:31.380Z,9.78
2017-10-30T10:49:31.122Z,9.76
2017-10-30T10:50:31.089Z,9.79
2017-10-30T10:51:31.428Z,9.83
2017-10-30T10:52:31.042Z,9.89
2017-10-30T10:53:31.029Z,9.83
2017-10-30T10:54:31.459Z,9.90
2017-10-30T10:55:31.009Z,9.96
2017-10-30T10:56:30.979Z,9.96
2017-10-30T10:57:30.973Z,10.02
2017-10-30T10:58:30.950Z,9.96
2017-10-30T10:59:30.932Z,9.99
2017-10-30T11:00:31.057Z,10.04
2017-10-30T11:01:30.903Z,10.11
2017-10-30T11:02:30.887Z,10.02
2017-10-30T11:03:30.874Z,10.01
2017-10-30T11:04:30.856Z,10.25
2017-10-30T11:05:30.846Z,10.15
2017-10-30T11:06:31.233Z,10.17
2017-10-30T11:07:30.816Z,10.25
2017-10-30T11:08:30.798Z,10.26
2017-10-30T11:09:30.782Z,10.25
2017-10-30T11:10:30.768Z,10.27
2017-10-30T11:11:30.759Z,10.26
2017-10-30T11:12:30.771Z,10.34
2017-10-30T11:16:21.535Z,10.40
2017-10-30T11:17:20.737Z,10.36
2017-10-30T11:18:21.079Z,10.34
2017-10-30T11:19:20.642Z,10.33
2017-10-30T11:20:22.783Z,10.32
2017-10-30T11:24:08.788Z,10.33
2017-10-30T11:25:08.722Z,10.32
2017-10-30T11:26:14.058Z,10.33
2017-10-30T11:27:07.903Z,10.33
2017-10-30T11:29:58.272Z,10.34
2017-10-30T11:35:32.695Z,10.56
2017-10-30T11:36:32.089Z,10.51
2017-10-30T11:37:32.555Z,10.60
2017-10-30T11:38:32.052Z,10.55
2017-10-30T11:39:32.126Z,10.64
2017-10-30T11:40:42.877Z,10.56
2017-10-30T11:41:32.008Z,10.53
2017-10-30T11:42:32.502Z,10.64
2017-10-30T11:43:31.985Z,10.56
2017-10-30T11:44:32.110Z,10.56
2017-10-30T11:45:31.935Z,10.68
2017-10-30T11:46:32.042Z,10.67
2017-10-30T11:47:31.911Z,10.64
2017-10-30T11:48:31.895Z,10.63
2017-10-30T11:49:31.883Z,10.53
2017-10-30T11:50:31.868Z,10.52
2017-10-30T11:51:32.258Z,10.52
2017-10-30T11:52:31.883Z,10.48
2017-10-30T11:53:31.828Z,10.51
2017-10-30T11:54:31.811Z,10.48
2017-10-30T11:55:31.800Z,10.42
2017-10-30T11:56:31.778Z,10.52
2017-10-30T11:57:32.349Z,10.52
2017-10-30T11:58:32.119Z,10.51
2017-10-30T11:59:31.733Z,10.44
2017-10-30T12:00:31.716Z,10.44
2017-10-30T12:01:31.709Z,10.44
2017-10-30T12:02:31.714Z,10.34
2017-10-30T12:03:31.671Z,10.38
2017-10-30T12:04:31.728Z,10.42
2017-10-30T12:05:31.648Z,10.45
2017-10-30T12:06:31.630Z,10.41
2017-10-30T12:07:31.614Z,10.42
2017-10-30T12:08:31.602Z,10.34
2017-10-30T12:09:31.586Z,10.40
2017-10-30T12:10:31.634Z,10.52
2017-10-30T12:11:31.559Z,10.47
2017-10-30T12:12:31.542Z,10.52
2017-10-30T12:13:31.548Z,10.53
2017-10-30T12:14:31.515Z,10.60
2017-10-30T12:15:31.504Z,10.61
2017-10-30T12:16:31.517Z,10.64
2017-10-30T12:17:31.510Z,10.56
2017-10-30T12:18:32.197Z,10.60
2017-10-30T12:19:32.124Z,10.70
2017-10-30T12:20:32.046Z,10.64
2017-10-30T12:21:31.520Z,10.71
2017-10-30T12:22:31.691Z,10.68
2017-10-30T12:23:31.408Z,10.76
2017-10-30T12:24:31.410Z,10.79
2017-10-30T12:25:50.377Z,10.74
2017-10-30T12:26:31.367Z,10.81
2017-10-30T12:39:49.644Z,10.73
2017-10-30T12:40:37.899Z,10.60
2017-10-30T12:41:38.492Z,10.59
2017-10-30T12:44:18.169Z,10.25
2017-10-30T12:45:18.215Z,10.07
2017-10-30T12:46:27.962Z,10.04
2017-10-30T12:49:38.171Z,9.83
2017-10-30T12:50:38.590Z,9.79
2017-10-30T12:51:38.198Z,9.72
2017-10-30T12:52:38.220Z,9.72
2017-10-30T12:53:38.150Z,9.71
2017-10-30T12:54:37.455Z,9.74
2017-10-30T12:55:37.292Z,9.66
2017-10-30T12:56:38.166Z,9.65
2017-10-30T12:57:37.976Z,9.66
2017-10-30T12:58:37.896Z,9.65
2017-10-30T12:59:37.199Z,9.68
2017-10-30T13:00:37.206Z,9.65
2017-10-30T13:01:37.153Z,9.65
2017-10-30T13:02:37.467Z,9.65
2017-10-30T13:03:37.118Z,9.60
2017-10-30T13:04:37.103Z,9.65
2017-10-30T13:05:37.091Z,9.64
2017-10-30T13:06:37.079Z,9.71
2017-10-30T13:07:37.059Z,9.74
2017-10-30T13:08:37.109Z,9.81
2017-10-30T13:09:37.029Z,9.74
2017-10-30T13:10:37.013Z,9.76
2017-10-30T13:11:37.000Z,9.83
2017-10-30T13:12:36.983Z,9.90
2017-10-30T13:13:36.963Z,9.74
2017-10-30T13:14:37.025Z,9.83
2017-10-30T13:15:36.944Z,9.81
2017-10-30T13:16:36.936Z,9.78
2017-10-30T13:25:15.140Z,9.71
2017-10-30T13:26:14.569Z,9.75
2017-10-30T13:27:14.539Z,9.78
2017-10-30T13:28:14.533Z,9.76
2017-10-30T13:29:14.510Z,9.79
2017-10-30T13:30:14.479Z,9.71
2017-10-30T13:31:14.997Z,9.76
2017-10-30T13:32:14.454Z,9.83
2017-10-30T13:33:14.432Z,9.84
2017-10-30T13:34:14.426Z,9.79
2017-10-30T13:35:14.415Z,9.81
2017-10-30T13:36:14.472Z,9.90
2017-10-30T13:37:14.439Z,9.93
2017-10-30T13:38:14.362Z,9.94
2017-10-30T13:39:14.343Z,9.93
2017-10-30T13:40:14.330Z,10.02
2017-10-30T13:41:14.318Z,10.08
2017-10-30T13:42:14.306Z,9.99
2017-10-30T13:43:14.353Z,9.96
2017-10-30T13:44:14.271Z,10.11
2017-10-30T13:45:14.254Z,10.17
2017-10-30T13:46:14.256Z,10.08
2017-10-30T13:47:14.223Z,10.12
2017-10-30T13:48:14.212Z,10.14
2017-10-30T13:49:14.264Z,10.23
2017-10-30T13:50:14.186Z,10.23
2017-10-30T13:51:14.171Z,10.29
2017-10-30T13:52:14.150Z,10.26
2017-10-30T13:53:14.138Z,10.25
2017-10-30T13:54:14.120Z,10.26
2017-10-30T13:55:14.188Z,10.23
2017-10-30T13:56:14.093Z,10.22
2017-10-30T13:57:14.078Z,10.23
2017-10-30T13:58:14.068Z,10.26
2017-10-30T13:59:14.044Z,10.29
2017-10-30T14:00:14.030Z,10.23
2017-10-30T14:01:14.395Z,10.23
2017-10-30T14:02:14.007Z,10.25
2017-10-30T14:03:13.985Z,10.22
2017-10-30T14:04:13.977Z,10.23
2017-10-30T14:05:13.956Z,10.26
2017-10-30T14:06:14.079Z,10.23
2017-10-30T14:07:14.361Z,10.23
2017-10-30T14:08:13.917Z,10.23
2017-10-30T14:09:13.897Z,10.26
2017-10-30T14:10:13.898Z,10.25
2017-10-30T14:11:13.873Z,10.14
2017-10-30T14:12:13.851Z,10.23
2017-10-30T14:13:13.874Z,10.20
2017-10-30T14:14:13.828Z,10.17
2017-10-30T14:15:13.809Z,10.20
2017-10-30T14:16:13.802Z,10.09
2017-10-30T14:17:13.781Z,10.08
2017-10-30T14:18:13.761Z,10.08
2017-10-30T14:19:13.991Z,10.08
2017-10-30T14:20:13.731Z,9.97
2017-10-30T14:21:13.719Z,9.97
2017-10-30T14:22:13.709Z,10.07
2017-10-30T14:23:13.694Z,10.01
2017-10-30T14:24:13.673Z,9.99
2017-10-30T14:25:13.721Z,10.08
2017-10-30T14:26:13.643Z,9.97
2017-10-30T14:27:13.631Z,10.01
2017-10-30T14:28:13.614Z,9.99
2017-10-30T14:29:13.600Z,10.04
2017-10-30T14:30:13.588Z,10.01
2017-10-30T14:31:13.596Z,9.93
2017-10-30T14:32:13.553Z,9.99
2017-10-30T14:33:13.550Z,10.02
2017-10-30T14:34:13.523Z,9.99
2017-10-30T14:35:13.518Z,10.07
2017-10-30T14:36:13.657Z,9.94
2017-10-30T14:37:13.477Z,9.96
2017-10-30T14:38:13.467Z,9.89
2017-10-30T14:39:13.453Z,9.90
2017-10-30T14:40:13.441Z,9.90
2017-10-30T14:41:13.416Z,9.90
2017-10-30T14:42:13.484Z,9.91
2017-10-30T14:43:13.391Z,9.93
2017-10-30T14:44:13.383Z,9.91
2017-10-30T14:45:13.358Z,9.87
2017-10-30T14:46:13.342Z,9.87
2017-10-30T14:47:13.326Z,9.91
2017-10-30T14:48:13.419Z,9.84
2017-10-30T14:49:13.304Z,9.89
2017-10-30T14:50:13.282Z,9.87
2017-10-30T14:51:13.274Z,9.74
2017-10-30T14:52:13.250Z,9.79
2017-10-30T14:53:13.242Z,9.83
2017-10-30T14:54:13.423Z,9.76
2017-10-30T14:55:13.204Z,9.78
2017-10-30T14:56:13.187Z,9.76